Time;durP1;ratioP1;P1;durP2;ratioP2;P2;SDS_P1;SDS_P2;PMS_P1;PMS_P2;Temp;Humidity;BMP_temperature;BMP_pressure;BME280_temperature;BME280_humidity;BME280_pressure;Samples;Min_cycle;Max_cycle;Signal;HPM_P1;HPM_P2
2021/11/09 00:00:16;;;;;;;;;12.75;12.00;;;;;21.12;38.83;102008.00;5056561;28;45232;-57
2021/11/09 00:02:44;;;;;;;;;12.25;12.25;;;;;21.10;38.57;102004.59;5056672;28;45349;-58
2021/11/09 00:05:13;;;;;;;;;17.25;13.50;;;;;21.10;39.06;101994.88;5056637;28;45427;-58
2021/11/09 00:07:45;;;;;;;;;14.75;13.75;;;;;21.11;39.13;102006.31;5056415;28;47535;-55
2021/11/09 00:10:10;;;;;;;;;14.25;13.50;;;;;21.09;39.02;102000.22;5056280;28;45702;-56
2021/11/09 00:12:40;;;;;;;;;12.50;11.50;;;;;21.10;38.81;101994.03;5056659;28;45293;-55
2021/11/09 00:15:09;;;;;;;;;14.25;14.25;;;;;21.07;38.48;101988.88;5056525;28;45356;-57
2021/11/09 00:17:35;;;;;;;;;15.75;13.00;;;;;21.08;39.18;101996.72;5056559;28;45485;-57
2021/11/09 00:20:00;;;;;;;;;16.00;14.75;;;;;21.07;39.02;101983.59;5056473;28;45960;-57
2021/11/09 00:22:27;;;;;;;;;15.50;14.50;;;;;21.06;38.71;101981.88;5056592;28;45214;-58
2021/11/09 00:24:53;;;;;;;;;15.25;13.25;;;;;21.06;39.02;101981.88;5056580;28;45209;-59
2021/11/09 00:27:20;;;;;;;;;11.25;11.25;;;;;21.06;39.21;101981.88;5056026;28;47000;-57
2021/11/09 00:29:46;;;;;;;;;15.25;14.00;;;;;21.06;38.90;101984.53;5054782;28;45302;-56
2021/11/09 00:32:12;;;;;;;;;18.25;14.50;;;;;21.04;38.97;101979.31;5055629;28;45257;-58
2021/11/09 00:34:37;;;;;;;;;13.50;13.25;;;;;21.05;38.76;101985.44;5056338;28;45403;-58
2021/11/09 00:37:04;;;;;;;;;16.00;14.50;;;;;21.05;39.06;101988.06;5056350;28;46438;-57
2021/11/09 00:39:30;;;;;;;;;16.25;14.00;;;;;21.02;39.14;101986.44;5055956;28;45382;-57
2021/11/09 00:41:56;;;;;;;;;14.75;12.50;;;;;21.03;38.82;101985.50;5055421;28;45330;-57
2021/11/09 00:44:23;;;;;;;;;14.75;13.50;;;;;21.03;38.91;101976.72;5056042;28;45463;-57
2021/11/09 00:46:49;;;;;;;;;16.75;13.75;;;;;21.01;38.85;101975.00;5055713;28;47332;-56
2021/11/09 00:49:14;;;;;;;;;16.50;15.75;;;;;21.01;38.98;101974.16;5055705;28;45431;-56
2021/11/09 00:51:39;;;;;;;;;16.75;14.75;;;;;21.00;38.64;101964.53;5056013;28;45369;-56
2021/11/09 00:54:05;;;;;;;;;14.75;14.75;;;;;21.00;38.64;101978.56;5056608;28;45344;-57
2021/11/09 00:56:31;;;;;;;;;16.25;14.50;;;;;20.99;39.28;101979.50;5055946;28;45338;-57
2021/11/09 00:58:57;;;;;;;;;15.00;14.25;;;;;20.99;38.96;101978.63;5056057;28;45352;-58
2021/11/09 01:01:23;;;;;;;;;21.00;15.75;;;;;20.99;39.25;101979.50;5056072;28;45426;-55
2021/11/09 01:03:49;;;;;;;;;17.50;17.00;;;;;20.98;39.06;101980.44;5056086;28;45292;-57
2021/11/09 01:06:14;;;;;;;;;17.75;16.25;;;;;20.97;38.92;101976.06;5055633;28;47215;-54
2021/11/09 01:08:40;;;;;;;;;15.25;15.00;;;;;20.99;39.00;101981.25;5055791;28;45268;-58
2021/11/09 01:11:05;;;;;;;;;16.25;14.75;;;;;20.97;39.16;101989.25;5056184;28;45296;-57
2021/11/09 01:13:31;;;;;;;;;20.25;18.00;;;;;20.93;39.14;101979.72;5056008;28;45584;-57
2021/11/09 01:15:57;;;;;;;;;17.00;16.00;;;;;20.97;39.01;101993.63;5055697;28;46097;-57
2021/11/09 01:18:30;;;;;;;;;19.00;17.25;;;;;20.96;38.71;101987.53;5055804;28;45427;-57
2021/11/09 01:20:56;;;;;;;;;17.50;16.00;;;;;20.96;38.84;101990.16;5055886;28;45292;-57
2021/11/09 01:23:23;;;;;;;;;16.50;16.00;;;;;20.94;39.23;101989.34;5055971;28;45490;-57
2021/11/09 01:25:49;;;;;;;;;17.75;16.75;;;;;20.94;39.37;101989.34;5055554;28;45360;-58
2021/11/09 01:28:16;;;;;;;;;20.50;17.50;;;;;20.95;39.15;101990.19;5055607;28;45270;-57
2021/11/09 01:30:42;;;;;;;;;19.50;16.25;;;;;20.96;38.94;101994.56;5055618;28;45270;-58
2021/11/09 01:33:08;;;;;;;;;16.75;16.75;;;;;20.94;39.25;101992.00;5056277;28;45493;-56
2021/11/09 01:35:34;;;;;;;;;26.75;19.50;;;;;20.94;39.00;101994.63;5055752;28;46089;-57
2021/11/09 01:37:59;;;;;;;;;19.75;17.00;;;;;20.93;38.89;101990.28;5055449;28;45650;-56
2021/11/09 01:40:26;;;;;;;;;19.00;18.50;;;;;20.93;38.62;102003.44;5055561;28;45241;-56
2021/11/09 01:42:55;;;;;;;;;14.75;13.75;;;;;20.93;39.29;101994.69;5038149;28;45260;-53
2021/11/09 01:45:21;;;;;;;;;17.00;16.25;;;;;20.92;38.83;102003.53;5058600;28;45709;-56
2021/11/09 01:47:47;;;;;;;;;22.00;17.00;;;;;20.92;39.18;102004.38;5058833;28;45368;-56
2021/11/09 01:50:16;;;;;;;;;19.00;17.75;;;;;20.91;39.12;101994.72;5058780;28;45376;-55
2021/11/09 01:52:42;;;;;;;;;20.25;16.50;;;;;20.92;39.41;102004.38;5059073;28;45328;-56
2021/11/09 01:55:10;;;;;;;;;17.50;15.00;;;;;20.92;38.82;102004.38;5058833;28;45354;-52
2021/11/09 01:57:36;;;;;;;;;17.50;17.25;;;;;20.91;38.78;101997.38;5058920;28;45377;-52
2021/11/09 02:00:07;;;;;;;;;20.25;20.25;;;;;20.91;38.91;101999.16;5058754;28;45475;-52
2021/11/09 02:02:32;;;;;;;;;20.25;16.50;;;;;20.90;39.19;101993.00;5058823;28;45513;-56
2021/11/09 02:04:58;;;;;;;;;18.25;16.50;;;;;20.89;39.34;101993.09;5058329;28;45320;-54
2021/11/09 02:07:23;;;;;;;;;17.25;15.25;;;;;20.88;39.24;101994.88;5058568;28;45344;-58
2021/11/09 02:09:48;;;;;;;;;23.00;18.50;;;;;20.88;38.91;101992.25;5058265;28;45438;-57
2021/11/09 02:12:14;;;;;;;;;19.25;16.50;;;;;20.88;39.04;101994.88;5058714;28;45453;-58
2021/11/09 02:14:39;;;;;;;;;21.75;16.75;;;;;20.88;39.14;101991.38;5058492;28;45462;-57
2021/11/09 02:17:05;;;;;;;;;18.75;18.75;;;;;20.88;38.99;101994.88;5058391;28;45485;-58
2021/11/09 02:19:31;;;;;;;;;17.50;17.00;;;;;20.87;38.93;101990.53;5058428;28;45403;-57
2021/11/09 02:21:57;;;;;;;;;19.50;18.50;;;;;20.85;39.41;101995.84;5058620;28;45621;-56
2021/11/09 02:24:23;;;;;;;;;21.25;17.75;;;;;20.85;39.46;101998.47;5058074;28;46351;-58
2021/11/09 02:26:49;;;;;;;;;26.25;19.50;;;;;20.86;39.54;101980.91;5058168;28;45249;-57
2021/11/09 02:29:14;;;;;;;;;19.50;19.50;;;;;20.85;38.99;101992.34;5058071;28;45351;-54
2021/11/09 02:31:40;;;;;;;;;19.75;16.50;;;;;20.85;39.38;101989.72;5040853;28;45568;-57
2021/11/09 02:34:05;;;;;;;;;18.75;17.25;;;;;20.90;39.30;102003.56;5058020;28;45502;-57
2021/11/09 02:36:32;;;;;;;;;22.25;19.00;;;;;20.94;39.44;102005.16;5058128;28;45343;-58
2021/11/09 02:38:57;;;;;;;;;20.50;20.50;;;;;20.96;39.17;102008.59;5058297;28;45945;-57
2021/11/09 02:41:23;;;;;;;;;20.25;19.50;;;;;21.02;39.31;102010.16;5058309;28;45634;-56
2021/11/09 02:43:49;;;;;;;;;17.25;15.50;;;;;21.07;39.15;102015.25;5056342;28;48108;-58
2021/11/09 02:48:55;;;;;;;;;20.25;19.00;;;;;21.16;39.02;102007.84;5057963;28;45230;-58
2021/11/09 02:54:11;;;;;;;;;18.00;18.00;;;;;21.25;39.09;102009.22;5057195;28;45469;-57
2021/11/09 02:56:49;;;;;;;;;19.25;18.00;;;;;21.30;39.14;102003.78;5039505;28;45916;-56
2021/11/09 03:01:57;;;;;;;;;21.75;19.00;;;;;21.38;39.09;102008.75;5058016;28;45301;-57
2021/11/09 03:06:59;;;;;;;;;19.25;18.50;;;;;21.45;39.15;102010.19;5057391;28;45261;-57
2021/11/09 03:09:39;;;;;;;;;21.75;18.75;;;;;21.46;39.18;102012.78;5057422;28;45198;-57
2021/11/09 03:12:05;;;;;;;;;19.00;17.75;;;;;21.52;39.00;102013.44;5057744;28;45449;-57
2021/11/09 03:14:33;;;;;;;;;23.00;19.75;;;;;21.53;39.07;102009.91;5057409;28;47049;-57
2021/11/09 03:17:02;;;;;;;;;21.75;18.00;;;;;21.57;39.00;102007.06;5057553;28;46020;-58
2021/11/09 03:46:37;;;;;;;;;18.50;17.25;;;;;21.67;38.54;102001.44;5056921;28;45413;-58
2021/11/09 03:49:05;;;;;;;;;21.25;20.00;;;;;21.70;38.57;102009.22;5056816;28;45209;-57
2021/11/09 03:51:30;;;;;;;;;27.00;23.00;;;;;21.69;38.79;102003.09;5057137;28;46008;-56
2021/11/09 03:53:59;;;;;;;;;23.00;21.50;;;;;21.70;38.67;102006.59;5039007;28;45570;-55
2021/11/09 03:56:30;;;;;;;;;25.75;22.75;;;;;21.69;38.65;102002.22;5056821;28;46430;-57
2021/11/09 03:58:59;;;;;;;;;22.00;22.00;;;;;21.70;38.46;102001.31;5056607;28;45954;-56
2021/11/09 04:01:32;;;;;;;;;8.75;7.00;;;;;21.69;38.58;101999.59;5056974;28;45275;-56
2021/11/09 04:04:29;;;;;;;;;25.75;22.25;;;;;21.70;38.58;102003.94;5040162;28;45348;-54
2021/11/09 04:07:15;;;;;;;;;22.25;17.75;;;;;21.69;38.53;102004.88;5055376;28;46299;-55
2021/11/09 04:09:52;;;;;;;;;22.75;19.50;;;;;21.69;38.64;102007.50;5056292;28;45373;-52
2021/11/09 04:14:53;;;;;;;;;23.50;21.00;;;;;21.69;38.59;102002.22;5057185;28;45353;-55
2021/11/09 04:17:32;;;;;;;;;27.25;25.00;;;;;21.68;38.58;102013.72;5056473;28;46365;-53
2021/11/09 04:20:06;;;;;;;;;25.75;24.50;;;;;21.67;38.43;102018.13;5056275;28;45392;-56
2021/11/09 04:44:29;;;;;;;;;28.50;27.50;;;;;21.60;38.44;102014.91;5056299;28;45323;-58
2021/11/09 05:10:04;;;;;;;;;30.50;25.75;;;;;21.53;38.36;102038.91;5055666;28;45269;-54
2021/11/09 05:12:30;;;;;;;;;28.50;26.25;;;;;21.51;38.31;102038.97;5055832;28;45384;-54
2021/11/09 05:14:56;;;;;;;;;29.25;26.50;;;;;21.50;38.28;102026.72;5055934;28;45222;-55
2021/11/09 05:17:22;;;;;;;;;31.50;28.25;;;;;21.51;38.13;102038.09;5057267;28;45374;-51
2021/11/09 05:19:48;;;;;;;;;35.00;29.00;;;;;21.50;38.60;102034.63;5059524;28;47022;-54
2021/11/09 05:22:13;;;;;;;;;34.00;30.50;;;;;21.51;38.16;102035.47;5059345;28;45380;-54
2021/11/09 05:24:42;;;;;;;;;29.25;29.00;;;;;21.52;38.01;102043.34;5041444;28;45454;-55
2021/11/09 05:27:09;;;;;;;;;32.25;27.75;;;;;21.53;38.50;102039.78;5041576;28;45482;-53
2021/11/09 05:29:34;;;;;;;;;29.50;28.50;;;;;21.54;38.13;102049.41;5059005;28;45545;-54
2021/11/09 05:32:00;;;;;;;;;38.50;32.00;;;;;21.53;38.28;102050.34;5059225;28;45921;-53
2021/11/09 05:34:29;;;;;;;;;36.75;32.25;;;;;21.53;38.63;102055.63;5059170;28;45346;-52
2021/11/09 05:36:54;;;;;;;;;33.25;31.00;;;;;21.54;38.64;102059.97;5059374;28;45369;-52
2021/11/09 05:39:24;;;;;;;;;35.75;31.00;;;;;21.54;38.38;102062.59;5041270;28;46129;-57
2021/11/09 05:41:52;;;;;;;;;36.50;31.75;;;;;21.51;38.16;102067.13;5059239;28;45785;-54
2021/11/09 05:44:17;;;;;;;;;31.75;29.50;;;;;21.50;38.42;102063.63;5059318;28;45356;-49
2021/11/09 05:46:43;;;;;;;;;36.50;30.25;;;;;21.49;38.12;102059.28;5040980;28;45236;-54
2021/11/09 05:49:09;;;;;;;;;36.25;31.50;;;;;21.47;38.28;102058.47;5040417;28;47029;-54
2021/11/09 05:51:35;;;;;;;;;37.50;31.50;;;;;21.45;38.57;102057.69;5058824;28;45493;-52
2021/11/09 05:54:01;;;;;;;;;31.50;29.75;;;;;21.44;38.50;102061.25;5058783;28;45435;-53
2021/11/09 05:56:28;;;;;;;;;31.00;28.25;;;;;21.41;38.61;102062.22;5058901;28;45631;-54
2021/11/09 05:58:53;;;;;;;;;37.75;31.25;;;;;21.41;38.17;102071.94;5058627;28;46633;-53
2021/11/09 06:01:19;;;;;;;;;35.50;31.75;;;;;21.38;38.47;102075.56;5059037;28;45255;-53
2021/11/09 06:03:44;;;;;;;;;30.25;29.50;;;;;21.37;38.38;102073.81;5058686;28;45357;-55
2021/11/09 06:06:09;;;;;;;;;38.00;32.00;;;;;21.37;38.44;102078.22;5058674;28;45250;-52
2021/11/09 06:08:35;;;;;;;;;27.00;23.50;;;;;21.35;38.44;102080.06;5058377;28;45377;-54
2021/11/09 06:11:01;;;;;;;;;35.75;29.25;;;;;21.34;38.13;102086.25;5058447;28;45379;-53
2021/11/09 06:13:27;;;;;;;;;32.50;29.25;;;;;21.31;38.36;102088.13;5058547;28;45841;-55
2021/11/09 06:15:52;;;;;;;;;33.50;31.00;;;;;21.31;38.50;102087.25;5058973;28;45324;-54
2021/11/09 06:18:17;;;;;;;;;34.75;31.25;;;;;21.30;38.39;102099.56;5058532;28;46343;-57
2021/11/09 06:20:43;;;;;;;;;34.50;29.00;;;;;21.28;38.77;102098.78;5058246;28;45308;-56
2021/11/09 06:23:08;;;;;;;;;32.50;30.50;;;;;21.28;38.66;102098.78;5058514;28;45178;-55
2021/11/09 06:25:34;;;;;;;;;30.75;28.75;;;;;21.26;38.71;102097.97;5058586;28;45383;-57
2021/11/09 06:28:03;;;;;;;;;31.75;28.75;;;;;21.26;38.35;102102.41;5058124;28;46169;-57
2021/11/09 06:30:29;;;;;;;;;29.00;27.25;;;;;21.25;38.43;102093.59;5039583;28;46071;-57
2021/11/09 06:32:54;;;;;;;;;34.25;30.75;;;;;21.25;38.40;102098.03;5058421;28;45208;-57
2021/11/09 06:35:20;;;;;;;;;29.50;29.50;;;;;21.25;38.75;102108.59;5058916;28;45539;-58
2021/11/09 06:37:45;;;;;;;;;34.50;31.25;;;;;21.21;38.41;102107.84;5039985;28;47087;-57
2021/11/09 06:40:11;;;;;;;;;31.75;28.50;;;;;21.23;38.60;102110.41;5058216;28;45352;-52
2021/11/09 06:42:36;;;;;;;;;30.25;30.25;;;;;21.21;38.57;102114.88;5040157;28;45248;-58
2021/11/09 06:45:04;;;;;;;;;29.00;28.25;;;;;21.20;38.17;102108.75;5040247;28;45461;-57
2021/11/09 06:47:29;;;;;;;;;25.25;25.00;;;;;21.20;38.55;102121.94;5057730;28;47179;-57
2021/11/09 06:49:55;;;;;;;;;31.75;29.50;;;;;21.16;38.65;102109.78;5057713;28;45490;-55
2021/11/09 06:52:20;;;;;;;;;32.00;30.50;;;;;21.19;38.39;102125.50;5058339;28;45352;-57
2021/11/09 06:54:46;;;;;;;;;26.25;25.25;;;;;21.17;38.62;102125.53;5058030;28;45287;-56
2021/11/09 06:57:12;;;;;;;;;27.50;24.50;;;;;21.17;38.59;102117.63;5057713;28;46612;-55
2021/11/09 06:59:37;;;;;;;;;30.75;27.50;;;;;21.16;38.86;102121.22;5057679;28;45505;-53
2021/11/09 07:02:03;;;;;;;;;24.00;20.00;;;;;21.14;38.22;102122.16;5057808;28;45391;-55
2021/11/09 07:04:29;;;;;;;;;25.00;23.50;;;;;21.13;38.40;102123.94;5057864;28;45347;-56
2021/11/09 07:06:55;;;;;;;;;29.50;27.75;;;;;21.14;38.37;102127.44;5057480;28;45452;-53
2021/11/09 07:09:20;;;;;;;;;31.25;27.75;;;;;21.14;38.60;102127.44;5057759;28;45249;-55
2021/11/09 07:11:46;;;;;;;;;29.75;25.50;;;;;21.13;38.47;102126.59;5057649;28;45246;-56
2021/11/09 07:14:11;;;;;;;;;23.00;22.75;;;;;21.12;38.28;102129.25;5057733;28;45252;-57
2021/11/09 07:16:38;;;;;;;;;31.00;26.25;;;;;21.12;38.22;102129.25;5057231;28;46083;-57
2021/11/09 07:19:04;;;;;;;;;31.50;24.25;;;;;21.11;38.42;102133.69;5057346;28;45783;-55
2021/11/09 07:21:31;;;;;;;;;24.50;24.50;;;;;21.12;38.68;102137.16;5057457;28;45356;-56
2021/11/09 07:23:57;;;;;;;;;27.75;27.25;;;;;21.12;38.66;102134.53;5057669;28;45419;-55
2021/11/09 07:26:23;;;;;;;;;29.00;27.00;;;;;21.11;38.21;102135.47;5039508;28;46582;-59
2021/11/09 07:28:49;;;;;;;;;25.25;22.75;;;;;21.11;38.56;102138.97;5057259;28;45954;-59
2021/11/09 07:31:16;;;;;;;;;29.00;25.25;;;;;21.10;38.55;102141.66;5057193;28;45384;-56
2021/11/09 07:33:42;;;;;;;;;29.25;24.00;;;;;21.09;38.50;102146.06;5057529;28;45179;-55
2021/11/09 07:36:07;;;;;;;;;25.25;25.25;;;;;21.09;38.77;102145.22;5057097;28;45621;-55
2021/11/09 07:38:33;;;;;;;;;23.00;20.25;;;;;21.09;38.58;102148.69;5057078;28;45224;-54
2021/11/09 07:40:59;;;;;;;;;28.75;26.50;;;;;21.09;38.38;102145.22;5057311;28;45491;-56
2021/11/09 07:43:24;;;;;;;;;27.50;26.00;;;;;21.07;38.04;102160.22;5057691;28;45510;-57
2021/11/09 07:45:50;;;;;;;;;27.25;21.75;;;;;21.03;37.80;102154.22;5056765;28;46265;-56
2021/11/09 07:48:15;;;;;;;;;29.50;24.00;;;;;21.00;37.82;102157.78;5056991;28;45434;-57
2021/11/09 07:50:41;;;;;;;;;27.50;26.75;;;;;20.98;37.71;102158.78;5057054;28;45454;-57
2021/11/09 07:53:12;;;;;;;;;21.50;21.00;;;;;20.95;37.32;102161.50;5057207;28;45515;-58
2021/11/09 07:55:47;;;;;;;;;35.00;27.00;;;;;20.92;38.04;102165.13;5056779;28;45404;-54
2021/11/09 07:58:18;;;;;;;;;30.00;25.75;;;;;20.91;37.46;102157.28;5056726;28;45793;-56
2021/11/09 08:00:48;;;;;;;;;27.00;24.00;;;;;20.87;37.60;102158.28;5056662;28;45335;-57
2021/11/09 08:03:24;;;;;;;;;26.50;24.00;;;;;20.85;37.56;102163.63;5053768;28;46004;-52
2021/11/09 08:08:28;;;;;;;;;27.00;23.75;;;;;20.83;37.08;102162.81;5055882;28;45455;-55
2021/11/09 08:10:54;;;;;;;;;24.25;24.25;;;;;20.84;38.14;102167.19;5056229;28;45286;-55
2021/11/09 08:13:20;;;;;;;;;27.50;21.00;;;;;20.83;37.42;102174.25;5056495;28;45221;-55
2021/11/09 08:15:46;;;;;;;;;27.25;22.25;;;;;20.82;36.96;102167.25;5056153;28;46195;-56
2021/11/09 08:18:15;;;;;;;;;24.50;20.25;;;;;20.82;37.10;102172.50;5055748;28;45403;-55
2021/11/09 08:20:40;;;;;;;;;27.75;22.25;;;;;20.82;37.80;102169.88;5056130;28;45440;-55
2021/11/09 08:23:06;;;;;;;;;22.00;20.75;;;;;20.84;37.16;102175.09;5056479;28;45684;-54
2021/11/09 08:25:32;;;;;;;;;23.00;19.25;;;;;20.83;37.68;102170.72;5056187;28;45987;-56
2021/11/09 08:27:58;;;;;;;;;22.75;17.25;;;;;20.84;36.87;102183.00;5056319;28;45958;-54
2021/11/09 08:30:24;;;;;;;;;23.00;19.75;;;;;20.82;36.75;102169.88;5055576;28;45441;-53
2021/11/09 08:32:49;;;;;;;;;21.25;19.00;;;;;20.82;37.08;102174.28;5055903;28;45644;-54
2021/11/09 08:35:20;;;;;;;;;18.75;15.25;;;;;20.82;36.92;102182.19;5056131;28;46093;-55
2021/11/09 08:37:46;;;;;;;;;18.75;18.50;;;;;20.82;37.43;102183.06;5055560;28;45973;-55
2021/11/09 08:40:18;;;;;;;;;17.50;17.50;;;;;20.82;36.50;102182.19;5056186;28;45422;-53
2021/11/09 08:42:48;;;;;;;;;20.50;17.50;;;;;20.81;36.24;102180.44;5055591;28;45212;-56
2021/11/09 08:45:29;;;;;;;;;19.75;19.00;;;;;20.80;36.90;102186.63;5054659;28;46224;-50
2021/11/09 08:48:04;;;;;;;;;25.75;19.50;;;;;20.79;36.30;102185.78;5054162;28;45975;-51
2021/11/09 08:50:29;;;;;;;;;19.25;17.00;;;;;20.79;36.00;102182.28;5055676;28;45372;-54
2021/11/09 08:52:56;;;;;;;;;18.75;16.25;;;;;20.77;36.42;102182.34;5058715;28;45474;-54
2021/11/09 08:55:31;;;;;;;;;19.50;16.75;;;;;20.78;35.97;102193.75;5057951;28;45378;-55
2021/11/09 09:05:56;;;;;;;;;17.25;16.25;;;;;20.73;36.63;102180.69;5059219;28;45255;-50
2021/11/09 09:08:23;;;;;;;;;18.50;16.75;;;;;20.76;36.33;102180.63;5040538;28;45221;-53
2021/11/09 09:10:48;;;;;;;;;19.50;16.25;;;;;20.76;36.18;102177.97;5056875;28;45380;-56
2021/11/09 09:13:14;;;;;;;;;16.75;15.25;;;;;20.76;36.50;102180.63;5038973;28;45466;-55
2021/11/09 09:15:40;;;;;;;;;20.50;17.25;;;;;20.77;36.02;102178.88;5039024;28;46449;-54
2021/11/09 09:18:06;;;;;;;;;19.00;16.00;;;;;20.77;36.44;102177.06;5038386;28;45497;-55
2021/11/09 09:20:40;;;;;;;;;19.50;17.50;;;;;20.76;36.42;102175.34;5038827;28;45312;-55
2021/11/09 09:23:10;;;;;;;;;16.25;15.50;;;;;20.74;36.36;102174.53;5039222;28;45327;-54
2021/11/09 09:57:11;;;;;;;;;19.25;13.75;;;;;20.79;36.82;102171.75;5057906;28;45334;-56
2021/11/09 09:59:38;;;;;;;;;12.50;9.75;;;;;20.80;36.99;102173.47;5051200;28;46514;-53
2021/11/09 10:02:19;;;;;;;;;12.25;11.50;;;;;20.80;36.97;102170.81;5038354;28;45392;-56
2021/11/09 10:04:53;;;;;;;;;16.00;13.00;;;;;20.80;36.66;102163.81;5036944;28;45468;-57
2021/11/09 10:07:30;;;;;;;;;14.50;11.00;;;;;20.80;36.49;102166.44;5038276;28;45423;-54
2021/11/09 10:09:57;;;;;;;;;16.25;15.00;;;;;20.81;36.66;102162.00;5037959;28;45826;-57
2021/11/09 10:12:35;;;;;;;;;14.25;11.25;;;;;20.81;36.94;102167.28;5038322;28;45281;-56
2021/11/09 10:15:22;;;;;;;;;13.50;12.75;;;;;20.82;36.96;102161.09;5021505;28;45559;-57
2021/11/09 10:17:50;;;;;;;;;13.25;11.25;;;;;20.80;36.56;102158.53;5038191;28;47472;-57
2021/11/09 10:20:17;;;;;;;;;11.50;11.50;;;;;20.79;36.70;102148.03;5036860;28;45492;-54
2021/11/09 10:22:46;;;;;;;;;11.25;11.25;;;;;20.83;36.95;102152.28;5038271;28;45445;-52
2021/11/09 10:25:14;;;;;;;;;14.50;10.00;;;;;20.85;37.20;102153.94;5038503;28;45234;-54
2021/11/09 10:27:42;;;;;;;;;13.00;10.00;;;;;20.91;36.99;102157.28;5020189;28;48409;-55
2021/11/09 10:30:22;;;;;;;;;11.75;11.50;;;;;20.96;37.54;102156.19;5038084;28;45820;-53
2021/11/09 10:32:49;;;;;;;;;9.00;8.50;;;;;20.99;37.53;102145.56;5020072;28;45267;-56
2021/11/09 10:35:17;;;;;;;;;12.75;10.00;;;;;21.08;37.22;102146.97;5038191;28;45487;-54
2021/11/09 10:37:49;;;;;;;;;11.00;10.75;;;;;21.13;37.32;102139.78;5037832;28;45667;-52
2021/11/09 10:40:21;;;;;;;;;14.25;12.75;;;;;21.15;37.28;102135.31;5037872;28;45387;-55
2021/11/09 10:42:49;;;;;;;;;7.00;6.25;;;;;21.25;37.66;102146.34;5020111;28;45233;-58
2021/11/09 10:45:22;;;;;;;;;10.75;9.75;;;;;21.29;37.31;102140.03;5038037;28;45551;-55
2021/11/09 10:47:52;;;;;;;;;10.25;9.50;;;;;21.35;37.29;102140.72;5037419;28;46629;-57
2021/11/09 10:50:27;;;;;;;;;13.50;11.00;;;;;21.39;37.44;102142.31;5037633;28;45903;-56
2021/11/09 10:53:04;;;;;;;;;10.50;10.50;;;;;21.45;37.32;102139.44;5037869;28;45462;-53
2021/11/09 10:55:39;;;;;;;;;12.00;8.25;;;;;21.49;37.11;102141.06;5038287;28;45407;-53
2021/11/09 11:06:16;;;;;;;;;9.75;8.75;;;;;21.61;36.73;102127.41;5037843;28;45455;-56
2021/11/09 11:08:46;;;;;;;;;11.25;8.75;;;;;21.65;36.88;102122.03;5037415;28;47475;-56
2021/11/09 11:11:18;;;;;;;;;7.50;7.25;;;;;21.68;36.95;102121.88;5037569;28;45179;-55
2021/11/09 11:13:43;;;;;;;;;10.50;9.50;;;;;21.70;36.91;102120.06;5019646;28;45475;-55
2021/11/09 11:16:15;;;;;;;;;9.00;8.00;;;;;21.73;36.83;102117.28;5037246;28;45225;-54
2021/11/09 11:18:43;;;;;;;;;11.00;7.75;;;;;21.76;37.03;102114.53;5037116;28;46637;-56
2021/11/09 11:21:12;;;;;;;;;11.00;9.75;;;;;21.77;36.96;102111.00;5037259;28;45376;-56
2021/11/09 11:23:39;;;;;;;;;8.00;8.00;;;;;21.80;36.56;102110.84;5037290;28;45318;-56
2021/11/09 11:26:06;;;;;;;;;9.00;8.00;;;;;21.82;36.77;102111.66;5037873;28;45519;-56
2021/11/09 11:28:33;;;;;;;;;9.00;9.00;;;;;21.85;36.77;102108.00;5037454;28;45411;-57
2021/11/09 11:30:59;;;;;;;;;7.00;7.00;;;;;21.88;36.83;102099.97;5037284;28;45414;-54
2021/11/09 11:33:32;;;;;;;;;10.25;8.00;;;;;21.89;36.85;102099.91;5038060;28;45301;-56
2021/11/09 11:35:57;;;;;;;;;8.00;7.00;;;;;21.91;36.71;102092.78;5039179;28;45415;-55
2021/11/09 11:38:24;;;;;;;;;7.50;6.25;;;;;21.91;36.92;102086.66;5036987;28;46146;-55
2021/11/09 11:40:58;;;;;;;;;10.50;8.00;;;;;21.96;37.04;102089.94;5036993;28;45248;-57
2021/11/09 11:43:41;;;;;;;;;10.00;8.25;;;;;21.99;36.89;102079.28;5037192;28;45905;-55
2021/11/09 11:46:10;;;;;;;;;8.75;7.50;;;;;22.00;36.71;102080.13;5037368;28;45472;-56
2021/11/09 11:49:13;;;;;;;;;7.75;7.75;;;;;22.02;36.81;102073.00;5035881;28;46957;-57
2021/11/09 11:51:46;;;;;;;;;11.00;10.00;;;;;22.02;36.63;102075.63;5036666;28;45813;-56
2021/11/09 11:54:16;;;;;;;;;9.75;8.00;;;;;22.02;36.65;102062.44;5018880;28;45459;-57
2021/11/09 11:56:51;;;;;;;;;7.00;7.00;;;;;22.03;36.40;102065.03;5019333;28;45575;-52
2021/11/09 11:59:22;;;;;;;;;9.50;7.25;;;;;22.04;36.55;102061.47;5036608;28;46512;-55
2021/11/09 12:02:20;;;;;;;;;7.00;7.00;;;;;22.04;36.64;102061.47;5037059;28;45414;-55
2021/11/09 12:04:52;;;;;;;;;4.00;4.00;;;;;22.03;36.32;102059.75;5037846;28;45286;-56
2021/11/09 12:07:22;;;;;;;;;7.00;7.00;;;;;22.04;36.51;102056.19;5037067;28;45478;-56
2021/11/09 12:09:51;;;;;;;;;7.25;7.25;;;;;22.04;36.78;102050.91;5036365;28;45609;-56
2021/11/09 12:12:19;;;;;;;;;7.25;7.25;;;;;22.03;36.56;102045.69;5036536;28;45443;-54
2021/11/09 12:15:03;;;;;;;;;8.00;7.25;;;;;22.03;36.47;102043.91;5036554;28;45229;-55
2021/11/09 12:17:34;;;;;;;;;8.00;7.50;;;;;22.02;36.33;102039.56;5036793;28;45427;-54
2021/11/09 12:20:07;;;;;;;;;5.75;5.75;;;;;22.03;36.32;102036.00;5036479;28;46353;-53
2021/11/09 12:22:47;;;;;;;;;11.75;6.00;;;;;22.03;36.58;102032.47;5036380;28;45754;-56
2021/11/09 12:25:21;;;;;;;;;8.00;6.25;;;;;22.01;36.35;102029.91;5036555;28;45378;-56
2021/11/09 12:27:50;;;;;;;;;8.00;8.00;;;;;22.01;36.37;102029.03;5035808;28;45518;-56
2021/11/09 12:30:34;;;;;;;;;8.00;7.50;;;;;22.01;36.69;102023.75;5036138;28;46514;-56
2021/11/09 12:33:05;;;;;;;;;6.00;6.00;;;;;21.99;36.32;102020.34;5036377;28;45682;-55
2021/11/09 12:35:34;;;;;;;;;9.50;7.75;;;;;22.00;36.75;102019.41;5036400;28;45376;-51
2021/11/09 12:37:59;;;;;;;;;10.25;7.50;;;;;21.99;36.36;102021.19;5036506;28;45337;-52
2021/11/09 12:40:38;;;;;;;;;7.00;6.00;;;;;21.98;36.44;102021.28;5036128;28;46328;-52
2021/11/09 12:43:07;;;;;;;;;8.00;6.00;;;;;21.98;36.34;102016.00;5036097;28;45404;-52
2021/11/09 12:45:34;;;;;;;;;7.25;7.25;;;;;21.97;36.44;102015.13;5036415;28;45403;-56
2021/11/09 12:48:05;;;;;;;;;7.00;5.50;;;;;21.95;36.42;102013.47;5036671;28;45373;-55
2021/11/09 12:50:31;;;;;;;;;7.00;7.00;;;;;21.95;36.49;102024.88;5036142;28;46812;-55
2021/11/09 12:53:08;;;;;;;;;8.75;6.00;;;;;21.93;36.13;102014.41;5036055;28;45984;-55
2021/11/09 12:55:33;;;;;;;;;5.00;5.00;;;;;21.92;36.31;102010.03;5036367;28;45428;-55
2021/11/09 12:58:20;;;;;;;;;9.50;7.50;;;;;21.91;36.11;102007.47;5036284;28;45294;-53
2021/11/09 13:04:14;;;;;;;;;6.75;5.50;;;;;21.89;36.33;102012.81;5022823;28;46049;-54
2021/11/09 13:06:57;;;;;;;;;7.25;6.25;;;;;21.87;36.08;102009.41;5018286;28;45507;-55
2021/11/09 13:09:27;;;;;;;;;8.25;7.50;;;;;21.86;36.16;101998.88;5035958;28;45408;-54
2021/11/09 13:12:29;;;;;;;;;8.75;6.75;;;;;21.85;36.08;101998.03;5035824;28;45578;-53
2021/11/09 13:14:58;;;;;;;;;8.25;6.25;;;;;21.83;36.17;101999.88;5015329;28;46055;-55
2021/11/09 13:17:35;;;;;;;;;7.50;6.00;;;;;21.83;36.15;102009.59;5035837;28;45333;-55
2021/11/09 13:20:07;;;;;;;;;7.25;6.00;;;;;21.81;36.33;102001.72;5035845;28;45448;-55
2021/11/09 13:22:32;;;;;;;;;6.75;5.25;;;;;21.79;36.01;102003.56;5035580;28;46291;-56
2021/11/09 13:25:05;;;;;;;;;7.00;6.25;;;;;21.80;35.90;102005.28;5035710;28;45535;-55
2021/11/09 13:27:38;;;;;;;;;7.00;7.00;;;;;21.79;36.33;102000.91;5035896;28;45424;-55
2021/11/09 13:30:13;;;;;;;;;6.25;6.25;;;;;21.77;36.11;101995.72;5035807;28;45391;-54
2021/11/09 13:32:39;;;;;;;;;4.00;4.00;;;;;21.77;36.19;102000.16;5035906;28;45389;-56
2021/11/09 13:35:28;;;;;;;;;7.00;5.50;;;;;21.75;36.33;101994.06;5035658;28;45407;-55
2021/11/09 13:38:08;;;;;;;;;6.25;5.00;;;;;21.73;36.09;101995.91;5036093;28;45395;-54